createdAt,value
2018-04-23T00:01:55.325Z,25.20
2018-04-23T00:04:23.609Z,25.73
2018-04-23T00:06:51.845Z,26.63
2018-04-23T00:09:20.138Z,21.73
2018-04-23T00:11:48.412Z,25.23
2018-04-23T00:14:17.495Z,23.83
2018-04-23T00:16:45.769Z,24.07
2018-04-23T00:19:14.040Z,27.27
2018-04-23T00:21:43.606Z,26.90
2018-04-23T00:24:11.900Z,24.23
2018-04-23T00:26:40.923Z,24.83
2018-04-23T00:29:09.216Z,25.63
2018-04-23T00:31:37.477Z,24.58
2018-04-23T00:34:05.746Z,23.00
2018-04-23T00:36:34.031Z,21.00
2018-04-23T00:39:02.324Z,21.43
2018-04-23T00:41:30.616Z,21.63
2018-04-23T00:43:58.867Z,22.57
2018-04-23T00:46:28.305Z,24.53
2018-04-23T00:48:56.581Z,20.90
2018-04-23T00:51:24.926Z,23.87
2018-04-23T00:53:53.191Z,26.80
2018-04-23T00:56:21.464Z,23.80
2018-04-23T00:58:49.785Z,24.40
2018-04-23T01:01:20.151Z,23.40
2018-04-23T01:03:49.185Z,25.90
2018-04-23T01:06:17.504Z,24.23
2018-04-23T01:08:46.555Z,25.43
2018-04-23T01:11:14.844Z,25.77
2018-04-23T01:13:43.100Z,24.03
2018-04-23T01:16:11.355Z,23.17
2018-04-23T01:18:39.684Z,26.40
2018-04-23T01:21:07.980Z,26.97
2018-04-23T01:23:37.012Z,23.43
2018-04-23T01:26:05.307Z,24.73
2018-04-23T01:28:33.614Z,25.57
2018-04-23T01:31:02.716Z,28.27
2018-04-23T01:33:30.978Z,28.67
2018-04-23T01:36:00.793Z,30.17
2018-04-23T01:38:29.068Z,27.77
2018-04-23T01:40:57.369Z,30.27
2018-04-23T01:43:26.391Z,29.47
2018-04-23T01:45:55.637Z,30.10
2018-04-23T01:48:24.825Z,28.63
2018-04-23T01:50:53.121Z,30.50
2018-04-23T01:53:22.190Z,28.73
2018-04-23T01:55:50.466Z,31.77
2018-04-23T01:58:19.249Z,30.37
2018-04-23T02:00:47.508Z,32.23
2018-04-23T02:03:17.481Z,25.90
2018-04-23T02:05:45.788Z,28.03
2018-04-23T02:08:14.103Z,30.77
2018-04-23T02:10:42.367Z,30.73
2018-04-23T02:13:10.647Z,29.90
2018-04-23T02:15:38.942Z,30.90
2018-04-23T02:18:07.277Z,29.07
2018-04-23T02:20:35.579Z,31.43
2018-04-23T02:23:04.688Z,27.17
2018-04-23T02:25:32.986Z,31.30
2018-04-23T02:28:02.014Z,29.67
2018-04-23T02:30:30.306Z,28.23
2018-04-23T02:32:58.573Z,27.17
2018-04-23T02:35:26.833Z,29.03
2018-04-23T02:37:55.109Z,25.83
2018-04-23T02:40:23.392Z,26.83
2018-04-23T02:42:51.657Z,25.07
2018-04-23T02:45:19.946Z,24.77
2018-04-23T02:47:49.394Z,27.17
2018-04-23T02:50:17.631Z,26.30
2018-04-23T02:52:45.900Z,28.37
2018-04-23T02:55:14.601Z,26.83
2018-04-23T02:57:42.901Z,27.27
2018-04-23T03:00:11.165Z,23.50
2018-04-23T03:02:39.457Z,26.17
2018-04-23T03:05:07.728Z,28.93
2018-04-23T03:07:36.003Z,24.33
2018-04-23T03:10:05.620Z,27.87
2018-04-23T03:12:33.921Z,23.40
2018-04-23T03:15:02.938Z,29.60
2018-04-23T03:17:31.218Z,26.10
2018-04-23T03:19:59.496Z,29.93
2018-04-23T03:22:28.531Z,32.00
2018-04-23T03:24:56.804Z,31.77
2018-04-23T03:27:25.153Z,31.57
2018-04-23T03:29:54.170Z,30.60
2018-04-23T03:32:23.680Z,30.87
2018-04-23T03:34:51.911Z,28.17
2018-04-23T03:37:20.184Z,32.03
2018-04-23T03:39:49.236Z,33.57
2018-04-23T03:42:18.405Z,33.30
2018-04-23T03:44:46.634Z,33.50
2018-04-23T03:47:15.485Z,31.17
2018-04-23T03:49:43.753Z,29.70
2018-04-23T03:52:12.064Z,28.97
2018-04-23T03:54:41.233Z,30.60
2018-04-23T03:57:09.512Z,33.33
2018-04-23T03:59:38.604Z,31.07
2018-04-23T04:02:06.882Z,29.13
2018-04-23T04:04:39.058Z,30.93
2018-04-23T04:07:07.358Z,31.73
2018-04-23T04:09:35.649Z,32.70
2018-04-23T04:25:39.585Z,28.27
2018-04-23T04:28:07.883Z,28.20
2018-04-23T04:30:36.125Z,27.63
2018-04-23T04:33:04.431Z,28.97
2018-04-23T04:35:32.852Z,29.80
2018-04-23T04:38:01.062Z,27.80
2018-04-23T04:40:29.353Z,27.93
2018-04-23T04:42:57.630Z,29.47
2018-04-23T04:45:25.905Z,30.13
2018-04-23T04:47:54.177Z,28.13
2018-04-23T04:50:22.493Z,28.80
2018-04-23T04:52:52.588Z,29.23
2018-04-23T04:55:21.069Z,27.87
2018-04-23T04:57:49.438Z,27.80
2018-04-23T05:00:17.734Z,25.33
2018-04-23T05:02:46.006Z,25.90
2018-04-23T05:05:16.194Z,24.60
2018-04-23T05:07:44.487Z,23.30
2018-04-23T05:10:14.445Z,23.97
2018-04-23T05:12:42.750Z,23.00
2018-04-23T05:15:10.988Z,22.77
2018-04-23T05:17:39.298Z,23.80
2018-04-23T05:20:07.572Z,22.10
2018-04-23T05:22:35.857Z,22.47
2018-04-23T05:25:04.901Z,22.97
2018-04-23T05:27:33.918Z,21.80
2018-04-23T05:30:02.245Z,21.63
2018-04-23T05:32:30.500Z,20.93
2018-04-23T05:34:58.751Z,20.93
2018-04-23T05:37:27.029Z,21.07
2018-04-23T05:39:55.326Z,21.43
2018-04-23T05:42:23.576Z,20.90
2018-04-23T05:44:53.021Z,22.45
2018-04-23T05:47:21.251Z,22.80
2018-04-23T05:49:49.528Z,21.58
2018-04-23T05:52:17.809Z,21.53
2018-04-23T05:54:46.068Z,21.87
2018-04-23T05:57:14.341Z,21.75
2018-04-23T05:59:43.420Z,22.27
2018-04-23T06:02:11.699Z,23.08
2018-04-23T06:04:39.967Z,21.60
2018-04-23T06:07:09.071Z,22.67
2018-04-23T06:09:38.091Z,24.55
2018-04-23T06:12:06.402Z,24.17
2018-04-23T06:14:34.698Z,24.80
2018-04-23T06:17:02.953Z,26.43
2018-04-23T06:19:31.267Z,28.43
2018-04-23T06:21:59.530Z,27.10
2018-04-23T06:24:27.803Z,29.77
2018-04-23T06:26:56.099Z,30.00
2018-04-23T06:29:24.379Z,31.43
2018-04-23T06:31:52.631Z,33.33
2018-04-23T06:34:21.013Z,35.97
2018-04-23T06:36:53.708Z,36.77
2018-04-23T06:39:21.956Z,37.77
2018-04-23T06:41:50.215Z,39.60
2018-04-23T06:44:18.522Z,38.50
2018-04-23T06:46:46.776Z,41.83
2018-04-23T06:49:15.046Z,38.87
2018-04-23T06:51:43.295Z,39.93
2018-04-23T06:54:12.383Z,40.23
2018-04-23T06:56:41.828Z,44.53
2018-04-23T06:59:10.085Z,41.87
2018-04-23T07:01:38.401Z,41.23
2018-04-23T07:04:06.652Z,41.67
2018-04-23T07:06:34.897Z,40.90
2018-04-23T07:09:03.173Z,42.73
2018-04-23T07:11:31.452Z,41.50
2018-04-23T07:13:59.739Z,43.40
2018-04-23T07:16:28.036Z,41.97
2018-04-23T07:18:56.305Z,44.27
2018-04-23T07:21:25.386Z,46.63
2018-04-23T07:23:53.633Z,43.37
2018-04-23T07:26:21.897Z,42.87
2018-04-23T07:28:52.409Z,46.27
2018-04-23T07:31:20.693Z,45.10
2018-04-23T07:36:24.440Z,49.30
2018-04-23T07:38:52.791Z,53.33
2018-04-23T07:41:21.056Z,52.50
2018-04-23T07:43:49.322Z,51.80
2018-04-23T07:46:17.611Z,54.45
2018-04-23T07:48:45.884Z,51.60
2018-04-23T07:51:14.161Z,52.23
2018-04-23T07:53:42.426Z,50.97
2018-04-23T07:56:10.663Z,51.37
2018-04-23T07:58:38.958Z,48.53
2018-04-23T08:01:07.193Z,48.73
2018-04-23T08:03:35.443Z,54.40
2018-04-23T08:06:04.538Z,51.03
2018-04-23T08:08:32.811Z,47.57
2018-04-23T08:11:01.153Z,46.30
2018-04-23T08:13:29.433Z,51.70
2018-04-23T08:15:57.739Z,48.83
2018-04-23T08:18:26.096Z,47.53
2018-04-23T08:20:54.355Z,48.20
2018-04-23T08:23:22.672Z,50.47
2018-04-23T08:25:52.124Z,47.50
2018-04-23T08:28:20.428Z,46.63
2018-04-23T08:30:49.589Z,47.20
2018-04-23T08:33:17.900Z,47.53
2018-04-23T08:35:46.168Z,49.03
2018-04-23T08:38:14.556Z,41.67
2018-04-23T08:40:42.834Z,43.73
2018-04-23T08:43:11.134Z,42.47
2018-04-23T08:45:39.432Z,41.50
2018-04-23T08:48:08.479Z,40.10
2018-04-23T08:50:37.631Z,41.23
2018-04-23T08:53:05.973Z,39.23
2018-04-23T08:55:34.291Z,42.93
2018-04-23T08:58:04.513Z,42.87
2018-04-23T09:00:33.562Z,43.87
2018-04-23T09:03:01.829Z,44.27
2018-04-23T09:05:30.116Z,41.87
2018-04-23T09:07:58.405Z,43.63
2018-04-23T09:10:27.462Z,43.17
2018-04-23T09:12:55.737Z,43.97
2018-04-23T09:15:24.040Z,43.10
2018-04-23T09:17:52.381Z,41.20
2018-04-23T09:20:21.359Z,43.67
2018-04-23T09:22:49.663Z,42.60
2018-04-23T09:25:17.904Z,42.23
2018-04-23T09:27:46.188Z,39.53
2018-04-23T09:30:14.495Z,41.97
2018-04-23T09:32:42.780Z,38.50
2018-04-23T09:35:11.084Z,34.27
2018-04-23T09:37:40.164Z,31.73
2018-04-23T09:40:08.662Z,32.22
2018-04-23T09:42:37.752Z,32.72
2018-04-23T09:45:06.821Z,30.07
2018-04-23T09:47:35.068Z,29.17
2018-04-23T09:50:03.462Z,25.10
2018-04-23T09:52:32.436Z,22.95
2018-04-23T09:55:00.730Z,24.33
2018-04-23T09:57:30.161Z,18.80
2018-04-23T09:59:58.393Z,17.75
2018-04-23T10:02:26.660Z,16.95
2018-04-23T10:04:56.095Z,19.40
2018-04-23T10:07:24.365Z,16.50
2018-04-23T10:09:52.657Z,15.32
2018-04-23T10:12:20.920Z,15.10
2018-04-23T10:14:49.240Z,14.40
2018-04-23T10:17:18.291Z,13.98
2018-04-23T10:19:46.557Z,13.52
2018-04-23T10:22:14.842Z,11.33
2018-04-23T10:24:43.100Z,9.95
2018-04-23T10:27:11.443Z,9.73
2018-04-23T10:29:40.547Z,10.57
2018-04-23T10:32:09.584Z,9.18
2018-04-23T10:34:37.869Z,8.90
2018-04-23T10:37:06.143Z,9.10
2018-04-23T10:39:34.415Z,8.60
2018-04-23T10:42:02.696Z,8.68
2018-04-23T10:44:30.971Z,8.45
2018-04-23T10:46:59.283Z,8.68
2018-04-23T10:49:28.385Z,9.18
2018-04-23T10:51:57.435Z,8.45
2018-04-23T10:54:25.667Z,8.20
2018-04-23T10:56:55.135Z,7.93
2018-04-23T10:59:24.323Z,6.80
2018-04-23T11:01:52.612Z,6.43
2018-04-23T11:04:20.867Z,5.50
2018-04-23T11:06:49.136Z,4.97
2018-04-23T11:09:17.409Z,4.85
2018-04-23T11:11:45.700Z,4.87
2018-04-23T11:14:13.990Z,5.30
2018-04-23T11:16:42.341Z,4.53
2018-04-23T11:19:10.634Z,6.10
2018-04-23T11:21:38.905Z,6.45
2018-04-23T11:24:07.146Z,6.30
2018-04-23T11:26:35.409Z,7.03
2018-04-23T11:29:04.502Z,5.97
2018-04-23T11:31:33.598Z,6.15
2018-04-23T11:34:02.586Z,4.05
2018-04-23T11:36:30.867Z,3.65
2018-04-23T11:38:59.142Z,2.85
2018-04-23T11:41:28.151Z,2.58
2018-04-23T11:43:56.485Z,2.53
2018-04-23T11:46:24.772Z,2.58
2018-04-23T11:48:53.849Z,3.07
2018-04-23T11:51:22.896Z,2.50
2018-04-23T11:53:51.137Z,3.08
2018-04-23T11:56:20.191Z,3.30
2018-04-23T11:58:48.492Z,3.72
2018-04-23T12:01:17.513Z,4.03
2018-04-23T12:03:46.569Z,3.62
2018-04-23T12:06:14.788Z,4.05
2018-04-23T12:08:43.268Z,4.15
2018-04-23T12:11:12.298Z,4.55
2018-04-23T12:13:40.570Z,3.97
2018-04-23T12:16:08.851Z,4.25
2018-04-23T12:18:37.114Z,4.50
2018-04-23T12:21:05.356Z,4.00
2018-04-23T12:23:33.642Z,4.80
2018-04-23T12:26:01.970Z,3.85
2018-04-23T12:28:30.230Z,5.00
2018-04-23T12:30:58.478Z,3.90
2018-04-23T12:33:26.728Z,4.95
2018-04-23T12:35:55.792Z,4.85
2018-04-23T12:38:24.053Z,5.32
2018-04-23T12:40:52.370Z,6.83
2018-04-23T12:43:20.644Z,5.47
2018-04-23T12:45:50.466Z,6.55
2018-04-23T12:48:18.731Z,5.80
2018-04-23T12:50:47.035Z,6.60
2018-04-23T12:53:15.347Z,6.62
2018-04-23T12:55:43.581Z,6.50
2018-04-23T12:58:11.841Z,6.57
2018-04-23T13:00:40.892Z,5.97
2018-04-23T13:03:09.147Z,8.15
2018-04-23T13:05:37.393Z,7.35
2018-04-23T13:08:05.705Z,8.52
2018-04-23T13:10:33.990Z,7.53
2018-04-23T13:13:02.833Z,8.00
2018-04-23T13:15:31.895Z,8.32
2018-04-23T13:18:00.168Z,8.40
2018-04-23T13:20:28.499Z,8.88
2018-04-23T13:22:56.809Z,7.95
2018-04-23T13:25:25.089Z,8.15
2018-04-23T13:27:53.402Z,7.40
2018-04-23T13:30:22.430Z,6.93
2018-04-23T13:32:51.664Z,6.60
2018-04-23T13:35:20.073Z,5.85
2018-04-23T13:37:49.174Z,6.18
2018-04-23T13:40:18.209Z,6.00
2018-04-23T13:42:46.499Z,6.15
2018-04-23T13:45:14.764Z,6.50
2018-04-23T13:47:43.053Z,6.25
2018-04-23T13:50:11.336Z,5.30
2018-04-23T13:52:39.632Z,5.10
2018-04-23T13:55:07.906Z,5.12
2018-04-23T13:57:37.076Z,5.45
2018-04-23T14:00:06.099Z,5.93
2018-04-23T14:02:34.373Z,5.30
2018-04-23T14:05:02.665Z,6.00
2018-04-23T14:07:31.720Z,5.20
2018-04-23T14:10:00.034Z,5.22
2018-04-23T14:12:29.087Z,5.93
2018-04-23T14:14:57.367Z,4.57
2018-04-23T14:17:25.651Z,4.97
2018-04-23T14:19:53.950Z,4.50
2018-04-23T14:22:22.260Z,5.40
2018-04-23T14:24:50.538Z,5.00
2018-04-23T14:27:18.827Z,4.63
2018-04-23T14:29:47.131Z,4.97
2018-04-23T14:32:15.433Z,4.72
2018-04-23T14:34:43.764Z,4.83
2018-04-23T14:37:12.070Z,5.20
2018-04-23T14:39:40.359Z,5.28
2018-04-23T14:42:08.677Z,4.80
2018-04-23T14:44:36.989Z,5.63
2018-04-23T14:47:05.234Z,5.73
2018-04-23T14:49:33.545Z,5.43
2018-04-23T14:52:01.825Z,6.20
2018-04-23T14:54:30.133Z,6.80
2018-04-23T14:56:59.174Z,6.70
2018-04-23T14:59:27.447Z,5.90
2018-04-23T15:01:55.750Z,6.37
2018-04-23T15:04:24.018Z,6.13
2018-04-23T15:06:52.311Z,6.27
2018-04-23T15:09:20.555Z,5.30
2018-04-23T15:11:48.813Z,4.90
2018-04-23T15:14:17.096Z,4.43
2018-04-23T15:16:45.345Z,4.70
2018-04-23T15:19:13.698Z,4.63
2018-04-23T15:21:41.977Z,4.77
2018-04-23T15:24:10.246Z,3.73
2018-04-23T15:26:39.300Z,4.70
2018-04-23T15:29:07.599Z,3.73
2018-04-23T15:31:35.875Z,4.00
2018-04-23T15:34:04.133Z,3.97
2018-04-23T15:36:32.401Z,4.70
2018-04-23T15:39:00.676Z,3.57
2018-04-23T15:41:28.952Z,3.13
2018-04-23T15:43:57.226Z,3.43
2018-04-23T15:46:25.501Z,3.40
2018-04-23T15:48:53.792Z,3.30
2018-04-23T15:51:23.228Z,3.63
2018-04-23T15:53:51.476Z,2.90
2018-04-23T15:56:19.769Z,3.27
2018-04-23T15:58:48.060Z,2.97
2018-04-23T16:01:16.545Z,4.57
2018-04-23T16:03:44.817Z,2.77
2018-04-23T16:06:13.077Z,2.93
2018-04-23T16:08:41.355Z,3.13
2018-04-23T16:11:09.630Z,2.80
2018-04-23T16:13:37.900Z,3.43
2018-04-23T16:16:06.180Z,2.50
2018-04-23T16:18:34.507Z,2.97
2018-04-23T16:21:02.779Z,2.50
2018-04-23T16:23:31.046Z,3.00
2018-04-23T16:26:00.115Z,2.37
2018-04-23T16:28:28.356Z,2.57
2018-04-23T16:30:56.693Z,3.17
2018-04-23T16:33:25.722Z,3.10
2018-04-23T16:35:53.989Z,2.67
2018-04-23T16:38:22.231Z,2.67
2018-04-23T16:40:51.266Z,3.03
2018-04-23T16:43:19.571Z,3.17
2018-04-23T16:45:47.815Z,2.83
2018-04-23T16:48:16.099Z,3.50
2018-04-23T16:50:44.375Z,2.80
2018-04-23T16:53:12.636Z,3.57
2018-04-23T16:55:40.917Z,3.10
2018-04-23T16:58:09.229Z,3.23
2018-04-23T17:00:37.512Z,3.20
2018-04-23T17:03:05.828Z,3.50
2018-04-23T17:05:34.092Z,3.40
2018-04-23T17:08:03.291Z,3.30
2018-04-23T17:10:32.351Z,4.07
2018-04-23T17:13:00.595Z,3.67
2018-04-23T17:15:28.908Z,4.78
2018-04-23T17:17:57.210Z,3.37
2018-04-23T17:20:26.277Z,5.07
2018-04-23T17:22:54.551Z,4.60
2018-04-23T17:25:23.756Z,4.27
2018-04-23T17:27:52.018Z,5.07
2018-04-23T17:30:20.305Z,4.83
2018-04-23T17:32:48.618Z,5.43
2018-04-23T17:35:16.919Z,3.97
2018-04-23T17:37:45.165Z,4.53
2018-04-23T17:40:13.493Z,4.77
2018-04-23T17:42:42.000Z,3.90
2018-04-23T17:45:10.300Z,3.77
2018-04-23T17:47:39.330Z,3.50
2018-04-23T17:50:07.630Z,3.67
2018-04-23T17:52:35.921Z,3.77
2018-04-23T17:55:04.192Z,3.23
2018-04-23T17:57:32.545Z,3.67
2018-04-23T18:00:00.883Z,4.20
2018-04-23T18:02:29.954Z,3.77
2018-04-23T18:04:59.142Z,3.63
2018-04-23T18:07:27.412Z,3.90
2018-04-23T18:09:55.712Z,4.27
2018-04-23T18:12:24.014Z,4.03
2018-04-23T18:14:52.310Z,4.70
2018-04-23T18:17:21.515Z,4.97
2018-04-23T18:19:49.892Z,4.63
2018-04-23T18:22:18.203Z,5.07
2018-04-23T18:24:46.583Z,5.20
2018-04-23T18:27:14.888Z,4.53
2018-04-23T18:29:43.931Z,5.65
2018-04-23T18:32:12.250Z,5.27
2018-04-23T18:34:41.319Z,4.83
2018-04-23T18:37:09.635Z,5.10
2018-04-23T18:39:38.057Z,4.40
2018-04-23T18:42:06.464Z,5.57
2018-04-23T18:44:35.541Z,4.87
2018-04-23T18:47:03.926Z,5.78
2018-04-23T18:49:32.216Z,5.10
2018-04-23T18:52:02.947Z,4.63
2018-04-23T18:54:31.293Z,6.10
2018-04-23T18:56:59.549Z,4.97
2018-04-23T18:59:28.645Z,5.07
2018-04-23T19:01:56.948Z,5.53
2018-04-23T19:04:26.160Z,6.27
2018-04-23T19:06:55.314Z,5.80
2018-04-23T19:09:23.623Z,6.20
2018-04-23T19:11:51.951Z,5.77
2018-04-23T19:14:20.243Z,5.23
2018-04-23T19:16:48.563Z,6.20
2018-04-23T19:19:16.876Z,4.80
2018-04-23T19:21:46.226Z,5.50
2018-04-23T19:24:15.258Z,5.87
2018-04-23T19:26:44.345Z,6.87
2018-04-23T19:29:12.679Z,5.80
2018-04-23T19:31:40.954Z,6.20
2018-04-23T19:34:09.223Z,6.20
2018-04-23T19:36:37.509Z,5.30
2018-04-23T19:39:05.823Z,5.47
2018-04-23T19:41:34.093Z,5.57
2018-04-23T19:44:03.414Z,5.03
2018-04-23T19:46:32.457Z,5.43
2018-04-23T19:49:00.734Z,5.13
2018-04-23T19:51:29.058Z,6.43
2018-04-23T19:53:58.139Z,5.20
2018-04-23T19:56:26.512Z,6.10
2018-04-23T19:58:55.559Z,6.13
2018-04-23T20:01:24.721Z,6.40
2018-04-23T20:03:53.765Z,7.40
2018-04-23T20:06:22.208Z,6.50
2018-04-23T20:08:51.245Z,7.28
2018-04-23T20:11:19.551Z,6.23
2018-04-23T20:13:47.928Z,7.13
2018-04-23T20:16:16.215Z,7.20
2018-04-23T20:18:44.512Z,7.70
2018-04-23T20:21:13.681Z,7.73
2018-04-23T20:23:41.957Z,8.10
2018-04-23T20:26:10.264Z,6.73
2018-04-23T20:28:38.573Z,7.77
2018-04-23T20:31:07.020Z,7.10
2018-04-23T20:33:36.120Z,7.13
2018-04-23T20:36:04.424Z,7.70
2018-04-23T20:38:32.733Z,7.13
2018-04-23T20:41:00.970Z,7.93
2018-04-23T20:43:29.244Z,7.70
2018-04-23T20:45:57.534Z,7.57
2018-04-23T20:48:25.790Z,8.37
2018-04-23T20:50:54.597Z,8.20
2018-04-23T20:53:22.862Z,8.80
2018-04-23T20:55:51.117Z,8.47
2018-04-23T20:58:19.439Z,8.47
2018-04-23T21:00:47.690Z,7.93
2018-04-23T21:03:15.975Z,8.50
2018-04-23T21:05:44.253Z,7.90
2018-04-23T21:08:12.556Z,8.30
2018-04-23T21:10:40.816Z,9.47
2018-04-23T21:13:09.077Z,8.80
2018-04-23T21:15:37.311Z,9.00
2018-04-23T21:18:06.360Z,8.93
2018-04-23T21:20:34.672Z,8.67
2018-04-23T21:23:03.715Z,9.47
2018-04-23T21:25:32.027Z,9.00
2018-04-23T21:28:00.269Z,8.47
2018-04-23T21:30:29.291Z,8.63
2018-04-23T21:32:57.506Z,8.63
2018-04-23T21:35:25.803Z,8.87
2018-04-23T21:37:54.086Z,7.63
2018-04-23T21:40:22.313Z,7.47
2018-04-23T21:42:51.350Z,7.50
2018-04-23T21:45:19.970Z,8.87
2018-04-23T21:47:48.352Z,8.77
2018-04-23T21:50:16.633Z,8.57
2018-04-23T21:52:45.272Z,7.80
2018-04-23T21:55:13.528Z,9.90
2018-04-23T21:57:41.832Z,9.07
2018-04-23T22:00:10.103Z,9.47
2018-04-23T22:02:38.361Z,10.13
2018-04-23T22:05:06.703Z,8.67
2018-04-23T22:07:34.967Z,8.70
2018-04-23T22:10:03.265Z,8.40
2018-04-23T22:12:32.310Z,9.93
2018-04-23T22:15:00.572Z,9.03
2018-04-23T22:17:28.848Z,9.13
2018-04-23T22:19:57.210Z,9.40
2018-04-23T22:22:26.180Z,8.63
2018-04-23T22:24:54.445Z,9.43
2018-04-23T22:27:22.830Z,8.63
2018-04-23T22:29:51.052Z,8.93
2018-04-23T22:32:19.329Z,8.63
2018-04-23T22:34:47.594Z,7.13
2018-04-23T22:37:15.844Z,8.33
2018-04-23T22:39:45.384Z,7.67
2018-04-23T22:42:13.651Z,8.43
2018-04-23T22:44:43.020Z,8.30
2018-04-23T22:47:12.762Z,8.07
2018-04-23T22:49:41.058Z,8.17
2018-04-23T22:52:09.314Z,8.83
2018-04-23T22:54:37.580Z,8.63
2018-04-23T22:57:05.824Z,8.70
2018-04-23T22:59:34.079Z,7.90
2018-04-23T23:02:02.379Z,7.47
2018-04-23T23:04:31.408Z,8.47
2018-04-23T23:06:59.693Z,7.90
2018-04-23T23:09:28.002Z,8.53
2018-04-23T23:11:56.257Z,8.23
2018-04-23T23:14:24.541Z,8.23
2018-04-23T23:16:52.781Z,8.23
2018-04-23T23:19:22.099Z,7.40
2018-04-23T23:21:50.408Z,8.30
2018-04-23T23:24:18.684Z,8.77
2018-04-23T23:26:46.986Z,8.30
2018-04-23T23:29:16.932Z,7.70
2018-04-23T23:31:45.189Z,7.80
2018-04-23T23:34:13.464Z,8.30
2018-04-23T23:36:42.134Z,7.83
2018-04-23T23:39:10.480Z,7.17
2018-04-23T23:41:38.753Z,7.50
2018-04-23T23:44:07.014Z,7.53
2018-04-23T23:46:35.257Z,8.87
2018-04-23T23:49:03.591Z,8.67
2018-04-23T23:51:31.890Z,9.03
2018-04-23T23:54:01.079Z,8.33
2018-04-23T23:56:29.354Z,8.83
2018-04-23T23:58:57.617Z,8.43
